Preview an experimental upcoming version of this site at Beta.AviationWeather.gov

TAF Text Data
IDs:
Format:
Raw Decoded Include METAR

Data at: 1726 UTC 25 Sep 2023

KSLC 251452Z 2515/2618 15012KT P6SM SKC
  FM251700 17014G21KT P6SM SKC
  FM252100 32006KT P6SM SKC
  FM260300 14012KT P6SM SKC